web analytics

METAR TAF NOOA PER LA SARDEGNA

Available data for LIEA from the past hour
ALGHERO
Metar
LIEA 230920Z 21009KT 180V240 CAVOK 20/14 Q1019

09:20 UTC

Wind: 210° 9kt

Visibility:

Sky:

Temp: 20 deg C / 68 deg F

Dewpoint: 14 deg C / 57.2 deg F

Pressure: 1019 hPa

TAF
TAF LIEA 230500Z 2306/2406 23010KT 9999 FEW030 BECMG 2317/2319 VRB05KT
Available data for LIEE from the past hour
CAGLIARI/ELMAS(A
Metar
LIEE 230920Z 34013KT 310V010 CAVOK 23/09 Q1019

09:20 UTC

Wind: 340° 13kt

Visibility:

Sky:

Temp: 23 deg C / 73.4 deg F

Dewpoint: 9 deg C / 48.2 deg F

Pressure: 1019 hPa

TAF
TAF LIEE 230500Z 2306/2406 31008KT 9999 SCT030
Available data for LIEO from the past hour
OLBIA/COSTA SMER
Metar
LIEO 230920Z 28008KT 240V330 CAVOK 23/11 Q1018

09:20 UTC

Wind: 280° 8kt

Visibility:

Sky:

Temp: 23 deg C / 73.4 deg F

Dewpoint: 11 deg C / 51.8 deg F

Pressure: 1018 hPa

TAF
TAF LIEO 230500Z 2306/2406 25012KT 9999 SCT030 BECMG 2309/2311 07010KT BECMG 2316/2318 25008KT
Available data for LIET from the past 2 hours
TORTOLI

PRINCIPALI AEROPORTI ITALIA

Available data for LIBD from the past hour
BARI/PALESE MACC
Metar
LIBD 230920Z 01009KT 350V050 CAVOK 20/11 Q1016

09:20 UTC

Wind: 10° 9kt

Visibility:

Sky:

Temp: 20 deg C / 68 deg F

Dewpoint: 11 deg C / 51.8 deg F

Pressure: 1016 hPa

TAF
TAF LIBD 230500Z 2306/2406 25008KT CAVOK BECMG 2308/2310 03012KT BECMG 2316/2318 29007KT
Available data for LICJ from the past hour
PALERMO/POINT RA
Metar
LICJ 230920Z 03009KT CAVOK 19/13 Q1018

09:20 UTC

Wind: 30° 9kt

Visibility:

Sky:

Temp: 19 deg C / 66.2 deg F

Dewpoint: 13 deg C / 55.4 deg F

Pressure: 1018 hPa

TAF
TAF LICJ 230500Z 2306/2406 VRB05KT 9999 SCT030 BECMG 2308/2310 33012KT BECMG 2316/2318 VRB05KT
ICAO LIRC not found
Available data for LIML from the past 2 hours
MILANO/LINATE
Metar
LIML 230920Z VRB03KT 9999 FEW040 21/13 Q1016 NOSIG

09:20 UTC

Wind: ° 3kt

Visibility: 9999 m

Sky: FEW 4000 ft

Temp: 21 deg C / 69.8 deg F

Dewpoint: 13 deg C / 55.4 deg F

Pressure: 1016 hPa

TAF
TAF LIML 230500Z 2306/2406 VRB05KT 9999 SCT070
Available data for LIMC from the past hour
MILANO/MALPENSA
Metar
LIMC 230920Z VRB01KT 9999 SCT025 20/15 Q1016 NOSIG

09:20 UTC

Wind: ° 1kt

Visibility: 9999 m

Sky: SCT 2500 ft

Temp: 20 deg C / 68 deg F

Dewpoint: 15 deg C / 59 deg F

Pressure: 1016 hPa

TAF
TAF LIMC 230500Z 2306/2412 VRB05KT 9999 SCT070
Available data for LIMF from the past hour
TORINO/CASELLE
Metar
LIMF 230920Z VRB03KT CAVOK 20/12 Q1016

09:20 UTC

Wind: ° 3kt

Visibility:

Sky:

Temp: 20 deg C / 68 deg F

Dewpoint: 12 deg C / 53.6 deg F

Pressure: 1016 hPa

TAF
TAF LIMF 230500Z 2306/2406 VRB05KT 9999 SCT100
Available data for LIMJ from the past hour
GENOVA/SESTRI
Metar
LIMJ 230920Z 23005KT 9999 FEW030 18/14 Q1018

09:20 UTC

Wind: 230° 5kt

Visibility: 9999 m

Sky: FEW 3000 ft

Temp: 18 deg C / 64.4 deg F

Dewpoint: 14 deg C / 57.2 deg F

Pressure: 1018 hPa

TAF
TAF LIMJ 230500Z 2306/2406 VRB05KT 9999 SCT025
Available data for LIRF from the past hour
ROME/FIUMICINO
Metar
LIRF 230920Z 23007KT 210V270 9999 FEW025 20/14 Q1017 NOSIG

09:20 UTC

Wind: 230° 7kt

Visibility: 9999 m

Sky: FEW 2500 ft

Temp: 20 deg C / 68 deg F

Dewpoint: 14 deg C / 57.2 deg F

Pressure: 1017 hPa

TAF
TAF LIRF 230500Z 2306/2412 VRB05KT 9999 FEW020 BECMG 2309/2311 24012KT BECMG 2317/2319 VRB04KT TEMPO 2400/2406 4000 BR
Available data for LIPZ from the past hour
VENEZIA/TESSERA
Metar
LIPZ 230920Z 15005KT 120V190 9999 SCT015 19/14 Q1016 NOSIG

09:20 UTC

Wind: 150° 5kt

Visibility: 9999 m

Sky: SCT 1500 ft

Temp: 19 deg C / 66.2 deg F

Dewpoint: 14 deg C / 57.2 deg F

Pressure: 1016 hPa

TAF
TAF LIPZ 230500Z 2306/2412 VRB05KT 9999 FEW040 BECMG 2308/2310 16010KT TEMPO 2312/2318 SHRA BECMG 2317/2319 VRB05KT TEMPO 2400/2406 3000 BR